PWSweather.com
Personal Weather Stations
Station Observations
WISCHPK61
Green Bay Schmitt Park, Green Bay, WI 54311

Green Bay Schmitt ParkGreen Bay, WI 54311

Lat: 44.514277, Lon: -87.935067

Elevation: 735

Station Type: Acu Rite Pro Weather Center model 02032C

http://greenbayweathercam.com

High Low Average
Temperature 65.7°F18.7°C 49.1°F9.5°C 55.7°F13.2°C
Dew Point 65.4°F18.6°C 48.8°F9.3°C 54.9°F12.7°C
Winds Calm Calm Calm Calm Calm SSWCalm SSW
Wind Gusts 1.2 mph1.9 kmh -- --
Humidity 99% 86% 98%
Pressure 29.18 in988.1 mb 29.06 in984.1 mb -
Precipitation 0.32 in8.1 mm - -
Hour Temp Dew Point Humidity Winds Wind Gusts Pressure Precip Precip Rate Daily Precip Total
12:00 AM 54.9°F12.7°C 54.6°F12.6°C 99% Calm Calm -- 29.08 in984.8 mb - 0.00 in0.0 mm 0.00 in0.0 mm
01:00 AM 53.8°F12.1°C 53.5°F11.9°C 99% Calm Calm 1.2 mph1.9 kmh 29.12 in986.1 mb - 0.03 in0.8 mm 0.03 in0.8 mm
02:00 AM 53.1°F11.7°C 52.8°F11.6°C 99% Calm Calm 1.2 mph1.9 kmh 29.08 in984.8 mb - 0.00 in0.0 mm 0.03 in0.8 mm
03:00 AM 51.3°F10.7°C 51.0°F10.6°C 99% Calm Calm -- 29.13 in986.5 mb - 0.00 in0.0 mm 0.03 in0.8 mm
04:00 AM 50.2°F10.1°C 49.9°F9.9°C 99% Calm Calm -- 29.10 in985.4 mb - 0.00 in0.0 mm 0.03 in0.8 mm
05:00 AM 49.8°F9.9°C 49.5°F9.7°C 99% Calm Calm -- 29.17 in987.8 mb - 0.06 in1.5 mm 0.09 in2.3 mm
06:00 AM 49.1°F9.5°C 48.8°F9.3°C 99% Calm Calm 1.2 mph1.9 kmh 29.07 in984.4 mb - 0.07 in1.8 mm 0.15 in3.8 mm
07:00 AM 50.2°F10.1°C 49.9°F9.9°C 99% Calm Calm -- 29.07 in984.4 mb - 0.00 in0.0 mm 0.15 in3.8 mm
08:00 AM 52.7°F11.5°C 52.4°F11.3°C 99% Calm Calm -- 29.14 in986.8 mb - 0.00 in0.0 mm 0.15 in3.8 mm
09:00 AM 50.9°F10.5°C 50.6°F10.3°C 99% Calm Calm -- 29.18 in988.1 mb - 0.08 in2.0 mm 0.23 in5.8 mm
10:00 AM 51.8°F11.0°C 51.5°F10.8°C 99% Calm Calm -- 29.06 in984.1 mb - 0.09 in2.3 mm 0.32 in8.1 mm
11:00 AM 55.9°F13.3°C 55.6°F13.1°C 99% Calm Calm -- 29.10 in985.4 mb - 0.00 in0.0 mm 0.32 in8.1 mm
12:00 PM 59.2°F15.1°C 58.9°F14.9°C 99% Calm Calm -- 29.11 in985.8 mb - 0.00 in0.0 mm 0.32 in8.1 mm
01:00 PM 65.7°F18.7°C 65.4°F18.6°C 99% Calm Calm -- 29.12 in986.1 mb - 0.00 in0.0 mm 0.32 in8.1 mm
02:00 PM 65.3°F18.5°C 65.0°F18.3°C 99% Calm Calm -- 29.12 in986.1 mb - 0.00 in0.0 mm 0.32 in8.1 mm
03:00 PM 63.1°F17.3°C 62.8°F17.1°C 99% Calm Calm -- 29.10 in985.4 mb - 0.00 in0.0 mm 0.32 in8.1 mm
04:00 PM 64.8°F18.2°C 64.5°F18.1°C 99% Calm Calm -- 29.07 in984.4 mb - 0.00 in0.0 mm 0.32 in8.1 mm
05:00 PM 63.3°F17.4°C 63.0°F17.2°C 99% Calm Calm -- 29.08 in984.8 mb - 0.00 in0.0 mm 0.32 in8.1 mm
06:00 PM 61.2°F16.2°C 60.9°F16.1°C 99% Calm Calm -- 29.08 in984.8 mb - 0.00 in0.0 mm 0.32 in8.1 mm
07:00 PM 57.4°F14.1°C 57.1°F13.9°C 99% Calm Calm -- 29.08 in984.8 mb - 0.00 in0.0 mm 0.32 in8.1 mm
08:00 PM 53.8°F12.1°C 53.5°F11.9°C 99% Calm Calm -- 29.08 in984.8 mb - 0.00 in0.0 mm 0.32 in8.1 mm
09:00 PM 52.9°F11.6°C 48.8°F9.3°C 86% Calm Calm -- 29.11 in985.8 mb - 0.00 in0.0 mm 0.32 in8.1 mm
10:00 PM 52.9°F11.6°C 49.7°F9.8°C 89% Calm Calm -- 29.12 in986.1 mb - 0.00 in0.0 mm 0.32 in8.1 mm
11:00 PM 52.9°F11.6°C 48.8°F9.3°C 86% Calm Calm -- 29.12 in986.1 mb - 0.00 in0.0 mm 0.33 in8.4 mm